Time;durP1;ratioP1;P1;durP2;ratioP2;P2;SDS_P1;SDS_P2;PMS_P1;PMS_P2;Temp;Humidity;BMP_temperature;BMP_pressure;BME280_temperature;BME280_humidity;BME280_pressure;Samples;Min_cycle;Max_cycle;Signal;HPM_P1;HPM_P2
2022/03/22 00:00:38;;;;;;;14.70;9.67;;;8.60;99.90;;;;;;5099622;28;20210;-85
2022/03/22 00:03:04;;;;;;;15.63;10.23;;;8.60;99.90;;;;;;5092261;28;20218;-84
2022/03/22 00:05:31;;;;;;;15.07;10.40;;;8.60;99.90;;;;;;5093222;28;20216;-83
2022/03/22 00:07:59;;;;;;;16.67;9.53;;;8.60;99.90;;;;;;5094794;28;20189;-84
2022/03/22 00:10:25;;;;;;;17.03;10.40;;;8.60;99.90;;;;;;5093388;28;20184;-84
2022/03/22 00:12:51;;;;;;;15.10;9.47;;;8.50;99.90;;;;;;5113379;28;20178;-84
2022/03/22 00:15:17;;;;;;;16.00;10.07;;;8.50;99.90;;;;;;5094892;28;20174;-84
2022/03/22 00:17:43;;;;;;;15.00;10.03;;;8.50;99.90;;;;;;5094756;28;20236;-84
2022/03/22 00:20:10;;;;;;;13.73;10.13;;;8.50;99.90;;;;;;5096571;28;20178;-84
2022/03/22 00:22:40;;;;;;;15.50;10.63;;;8.50;99.90;;;;;;5094606;28;20175;-84
2022/03/22 00:25:09;;;;;;;15.83;10.33;;;8.50;99.90;;;;;;5091974;28;20174;-84
2022/03/22 00:27:53;;;;;;;16.67;9.87;;;8.50;99.90;;;;;;5091634;28;20202;-84
2022/03/22 00:30:26;;;;;;;16.63;10.50;;;8.80;99.90;;;;;;5093032;28;20173;-83
2022/03/22 00:32:54;;;;;;;14.00;10.33;;;8.60;99.90;;;;;;5092996;28;20174;-84
2022/03/22 00:35:28;;;;;;;14.27;10.30;;;8.50;99.90;;;;;;5093118;28;20210;-84
2022/03/22 00:37:56;;;;;;;17.80;10.30;;;8.60;99.90;;;;;;5093090;28;20213;-84
2022/03/22 00:40:24;;;;;;;16.47;11.00;;;8.60;99.90;;;;;;5091857;28;20185;-84
2022/03/22 00:42:52;;;;;;;15.57;10.20;;;8.60;99.90;;;;;;5092486;28;20179;-84
2022/03/22 00:45:20;;;;;;;17.47;11.00;;;8.60;99.90;;;;;;5093133;28;20178;-84
2022/03/22 00:47:48;;;;;;;15.03;10.07;;;8.60;99.90;;;;;;5091658;28;20209;-84
2022/03/22 00:50:16;;;;;;;13.60;10.17;;;8.80;99.90;;;;;;5092152;28;20234;-84
2022/03/22 00:52:42;;;;;;;15.60;9.93;;;8.40;99.90;;;;;;5093360;28;20521;-84
2022/03/22 00:55:13;;;;;;;12.53;9.40;;;8.60;99.90;;;;;;5093061;28;20175;-84
2022/03/22 00:57:43;;;;;;;15.33;11.00;;;8.60;99.90;;;;;;5112244;28;20209;-84
2022/03/22 01:00:12;;;;;;;13.97;10.37;;;8.60;99.90;;;;;;5095106;28;20163;-83
2022/03/22 01:02:42;;;;;;;17.00;9.97;;;8.30;99.90;;;;;;5094659;28;20178;-84
2022/03/22 01:05:14;;;;;;;11.40;10.17;;;8.30;99.90;;;;;;5112489;28;20174;-83
2022/03/22 01:07:44;;;;;;;16.20;10.33;;;8.30;99.90;;;;;;5093655;28;20273;-83
2022/03/22 01:10:12;;;;;;;16.47;10.00;;;8.10;99.90;;;;;;5093909;28;20182;-83
2022/03/22 01:12:43;;;;;;;14.83;9.70;;;8.30;99.90;;;;;;5095327;28;20238;-84
2022/03/22 01:15:20;;;;;;;15.97;10.60;;;7.80;99.90;;;;;;5094849;28;20186;-83
2022/03/22 01:17:48;;;;;;;19.10;11.20;;;8.00;99.90;;;;;;5094519;28;20248;-84
2022/03/22 01:20:15;;;;;;;16.53;9.83;;;8.30;99.90;;;;;;5094660;28;20182;-84
2022/03/22 01:22:47;;;;;;;13.40;9.77;;;7.80;99.90;;;;;;5093039;28;20209;-83
2022/03/22 01:25:15;;;;;;;14.37;10.43;;;7.80;99.90;;;;;;5094520;28;20170;-84
2022/03/22 01:27:43;;;;;;;15.67;9.87;;;7.80;99.90;;;;;;5093351;28;20194;-84
2022/03/22 01:30:13;;;;;;;13.27;10.47;;;7.70;99.90;;;;;;5094057;28;20190;-84
2022/03/22 01:32:42;;;;;;;15.43;10.17;;;7.60;99.90;;;;;;5094296;28;20204;-85
2022/03/22 01:35:11;;;;;;;14.07;9.47;;;8.10;99.90;;;;;;5093384;28;20185;-82
2022/03/22 01:37:38;;;;;;;13.77;10.37;;;7.60;99.90;;;;;;5091983;28;20218;-83
2022/03/22 01:40:06;;;;;;;14.87;10.70;;;7.90;99.90;;;;;;5109264;28;20189;-83
2022/03/22 01:42:36;;;;;;;12.83;8.77;;;7.90;99.90;;;;;;5092185;28;20269;-83
2022/03/22 01:45:04;;;;;;;18.00;10.30;;;7.50;99.90;;;;;;5091149;28;20227;-82
2022/03/22 01:47:30;;;;;;;14.03;10.67;;;7.60;99.90;;;;;;5090555;28;20201;-83
2022/03/22 01:49:56;;;;;;;16.13;10.53;;;7.40;99.90;;;;;;5090081;28;20182;-83
2022/03/22 01:52:24;;;;;;;17.53;10.57;;;7.50;99.90;;;;;;5090348;28;20182;-83
2022/03/22 01:54:55;;;;;;;18.10;10.37;;;7.50;99.90;;;;;;5090665;28;20212;-83
2022/03/22 01:57:26;;;;;;;13.47;10.17;;;7.10;99.90;;;;;;5090115;28;20586;-82
2022/03/22 01:59:52;;;;;;;17.83;9.60;;;7.50;99.90;;;;;;5090677;28;20257;-83
2022/03/22 02:07:48;;;;;;;13.53;9.30;;;7.70;99.90;;;;;;5089865;28;20281;-83
2022/03/22 02:10:18;;;;;;;13.87;9.93;;;7.80;99.90;;;;;;5072259;28;20186;-83
2022/03/22 02:12:46;;;;;;;15.13;9.60;;;7.80;99.90;;;;;;5070909;28;20175;-83
2022/03/22 02:15:13;;;;;;;14.80;9.47;;;7.80;99.90;;;;;;5071704;28;20179;-83
2022/03/22 02:17:45;;;;;;;17.87;9.33;;;7.90;99.90;;;;;;5090024;28;20207;-83
2022/03/22 02:20:15;;;;;;;17.47;9.50;;;7.80;99.90;;;;;;5072420;28;20175;-83
2022/03/22 02:23:04;;;;;;;14.17;9.27;;;7.90;99.90;;;;;;5080779;28;20182;-83
2022/03/22 02:25:30;;;;;;;15.43;9.73;;;8.10;99.90;;;;;;5088144;28;20209;-82
2022/03/22 02:27:59;;;;;;;15.93;10.77;;;7.90;99.90;;;;;;5089196;28;20667;-83
2022/03/22 02:30:25;;;;;;;17.13;9.80;;;7.90;99.90;;;;;;5107284;28;20182;-83
2022/03/22 02:32:56;;;;;;;14.23;10.33;;;8.20;99.90;;;;;;5090657;28;20182;-82
2022/03/22 02:35:23;;;;;;;14.47;10.23;;;8.00;99.90;;;;;;5090380;28;20182;-83
2022/03/22 02:37:50;;;;;;;18.10;9.90;;;8.00;99.90;;;;;;5107925;28;20559;-82
2022/03/22 02:40:17;;;;;;;15.43;10.00;;;8.00;99.90;;;;;;5089436;28;20632;-82
2022/03/22 02:42:44;;;;;;;17.20;9.87;;;8.20;99.90;;;;;;5108361;28;20602;-82
2022/03/22 02:45:11;;;;;;;15.00;9.60;;;8.20;99.90;;;;;;5089281;28;20190;-83
2022/03/22 02:47:43;;;;;;;16.17;10.10;;;8.60;99.90;;;;;;5089676;28;20579;-82
2022/03/22 02:50:10;;;;;;;15.93;10.20;;;8.00;99.90;;;;;;5090234;28;20230;-82
2022/03/22 02:52:36;;;;;;;16.13;10.10;;;8.10;99.90;;;;;;5109012;28;20185;-82
2022/03/22 02:55:04;;;;;;;12.57;8.73;;;8.00;99.90;;;;;;5089586;28;20201;-83
2022/03/22 02:57:30;;;;;;;15.50;9.93;;;8.00;99.90;;;;;;5102133;23;20249;-89
2022/03/22 02:59:55;;;;;;;14.80;10.10;;;8.10;99.90;;;;;;5111319;28;20178;-90
2022/03/22 03:02:21;;;;;;;13.33;8.73;;;8.10;99.90;;;;;;5118825;28;20177;-89
2022/03/22 03:04:46;;;;;;;13.83;9.37;;;8.10;99.90;;;;;;5096421;28;20185;-90
2022/03/22 03:07:12;;;;;;;15.30;9.53;;;8.10;99.90;;;;;;5088904;28;20246;-89
2022/03/22 03:09:38;;;;;;;13.47;8.67;;;8.20;99.90;;;;;;5109027;22;20241;-81
2022/03/22 03:12:04;;;;;;;17.70;9.20;;;8.10;99.90;;;;;;5053858;28;20173;-82
2022/03/22 03:14:39;;;;;;;18.67;10.63;;;8.20;99.90;;;;;;5039028;28;20207;-81
2022/03/22 03:17:06;;;;;;;13.73;8.40;;;8.20;99.90;;;;;;5039080;28;20294;-81
2022/03/22 03:19:31;;;;;;;15.27;9.33;;;8.20;99.90;;;;;;5024929;28;20234;-81
2022/03/22 03:21:57;;;;;;;15.03;9.57;;;8.30;99.90;;;;;;5059055;28;20229;-81
2022/03/22 03:24:22;;;;;;;16.57;9.83;;;8.30;99.90;;;;;;5057830;28;20250;-81
2022/03/22 03:26:48;;;;;;;13.03;9.63;;;8.30;99.90;;;;;;5040508;28;20188;-81
2022/03/22 03:29:13;;;;;;;13.37;9.77;;;8.30;99.90;;;;;;5058197;28;20178;-83
2022/03/22 03:31:39;;;;;;;16.07;9.37;;;8.30;99.90;;;;;;5057596;28;20241;-81
2022/03/22 03:34:04;;;;;;;15.57;10.17;;;8.30;99.90;;;;;;5040973;28;20304;-81
2022/03/22 03:36:30;;;;;;;17.83;9.90;;;8.30;99.90;;;;;;5058703;28;20538;-82
2022/03/22 03:38:55;;;;;;;12.77;8.70;;;8.30;99.90;;;;;;5057372;28;20207;-81
2022/03/22 03:47:05;;;;;;;12.53;8.40;;;8.30;99.90;;;;;;5058790;28;20266;-81
2022/03/22 03:49:36;;;;;;;13.50;9.10;;;8.20;99.90;;;;;;5040462;28;20192;-81
2022/03/22 03:52:02;;;;;;;16.30;10.00;;;8.20;99.90;;;;;;5058258;28;20172;-81
2022/03/22 03:54:28;;;;;;;12.53;8.90;;;8.20;99.90;;;;;;5040351;28;20181;-81
2022/03/22 03:56:54;;;;;;;13.53;8.90;;;8.10;99.90;;;;;;5057063;28;20191;-81
2022/03/22 03:59:20;;;;;;;13.60;8.33;;;8.10;99.90;;;;;;5040024;28;20195;-82
2022/03/22 04:01:46;;;;;;;13.87;9.17;;;8.10;99.90;;;;;;5040489;28;20202;-81
2022/03/22 04:04:12;;;;;;;13.57;8.83;;;8.10;99.90;;;;;;5057653;28;20541;-81
2022/03/22 04:06:37;;;;;;;12.63;8.40;;;8.00;99.90;;;;;;5057707;28;20625;-81
2022/03/22 04:09:03;;;;;;;10.43;7.73;;;8.00;99.90;;;;;;5057822;28;20172;-81
2022/03/22 04:11:28;;;;;;;12.40;8.67;;;8.00;99.90;;;;;;5056278;28;20199;-81
2022/03/22 04:13:54;;;;;;;13.23;8.83;;;7.90;99.90;;;;;;5057718;28;20641;-81
2022/03/22 04:16:19;;;;;;;12.70;8.77;;;7.90;99.90;;;;;;5056480;28;20187;-81
2022/03/22 04:18:45;;;;;;;14.33;9.73;;;7.80;99.90;;;;;;5057647;28;20201;-81
2022/03/22 04:21:11;;;;;;;13.33;9.07;;;7.80;99.90;;;;;;5057354;28;20202;-81
2022/03/22 04:23:37;;;;;;;13.77;8.67;;;7.70;99.90;;;;;;5057171;28;20641;-79
2022/03/22 04:26:03;;;;;;;11.83;8.33;;;7.60;99.90;;;;;;5057907;28;20178;-81
2022/03/22 04:33:57;;;;;;;10.43;7.93;;;7.30;99.90;;;;;;5058024;28;20210;-81
2022/03/22 04:36:23;;;;;;;12.17;7.77;;;7.20;99.90;;;;;;5039435;28;20184;-81
2022/03/22 04:38:48;;;;;;;13.70;7.93;;;7.20;99.90;;;;;;5056836;28;20204;-81
2022/03/22 04:41:14;;;;;;;14.50;8.83;;;7.10;99.90;;;;;;5056939;28;20641;-82
2022/03/22 04:43:39;;;;;;;12.10;8.20;;;7.10;99.90;;;;;;5055441;28;20181;-81
2022/03/22 04:46:07;;;;;;;10.83;7.90;;;7.00;99.90;;;;;;5057527;28;20179;-81
2022/03/22 04:48:33;;;;;;;13.83;8.67;;;7.00;99.90;;;;;;5055857;28;20196;-80
2022/03/22 04:59:12;;;;;;;11.63;9.00;;;6.70;99.90;;;;;;5060439;28;20223;-82
2022/03/22 05:01:38;;;;;;;14.43;8.47;;;6.50;99.90;;;;;;5059271;28;20183;-81
2022/03/22 05:04:03;;;;;;;13.13;8.73;;;6.50;99.90;;;;;;5058615;28;20199;-81
2022/03/22 05:06:31;;;;;;;13.30;8.43;;;6.40;99.90;;;;;;5060616;28;20172;-82
2022/03/22 05:08:57;;;;;;;12.63;8.67;;;6.30;99.90;;;;;;5058790;28;20188;-81
2022/03/22 05:11:22;;;;;;;10.67;7.47;;;6.30;99.90;;;;;;5054483;28;20243;-82
2022/03/22 05:13:48;;;;;;;14.27;8.50;;;6.20;99.90;;;;;;5050438;28;20184;-82
2022/03/22 05:16:17;;;;;;;11.47;8.33;;;6.20;99.90;;;;;;5050131;28;20168;-81
2022/03/22 05:18:43;;;;;;;13.10;8.30;;;6.20;99.90;;;;;;5050433;28;20207;-81
2022/03/22 05:21:08;;;;;;;16.37;8.43;;;6.10;99.90;;;;;;5051062;28;20184;-82
2022/03/22 05:23:34;;;;;;;12.70;8.10;;;6.00;99.90;;;;;;5048870;28;20179;-80
2022/03/22 05:26:00;;;;;;;11.90;8.60;;;6.00;99.90;;;;;;5049202;28;20238;-81
2022/03/22 05:28:26;;;;;;;9.53;8.13;;;6.00;99.90;;;;;;5049038;28;20199;-82
2022/03/22 05:30:51;;;;;;;10.73;8.07;;;5.90;99.90;;;;;;5052639;28;20191;-82
2022/03/22 05:33:17;;;;;;;12.77;8.67;;;5.90;99.90;;;;;;5054552;28;20196;-81
2022/03/22 05:35:42;;;;;;;12.33;8.30;;;5.90;99.90;;;;;;5038429;28;20188;-81
2022/03/22 05:38:08;;;;;;;12.63;8.23;;;5.80;99.90;;;;;;5045228;28;20612;-82
2022/03/22 05:40:33;;;;;;;12.80;8.03;;;5.80;99.90;;;;;;5050386;28;20207;-80
2022/03/22 05:42:59;;;;;;;14.80;8.63;;;5.70;99.90;;;;;;5033603;28;20323;-81
2022/03/22 05:45:26;;;;;;;10.63;7.77;;;5.70;99.90;;;;;;5054171;28;20255;-80
2022/03/22 05:47:53;;;;;;;11.57;8.50;;;5.70;99.90;;;;;;5061298;28;20205;-79
2022/03/22 05:50:19;;;;;;;11.63;8.27;;;5.70;99.90;;;;;;5059981;28;20195;-80
2022/03/22 05:52:46;;;;;;;10.80;7.73;;;5.60;99.90;;;;;;5044845;28;20227;-79
2022/03/22 05:55:12;;;;;;;13.13;7.73;;;5.60;99.90;;;;;;5062435;28;20218;-79
2022/03/22 05:57:37;;;;;;;11.77;7.87;;;5.60;99.90;;;;;;5061404;28;20198;-79
2022/03/22 06:00:05;;;;;;;11.93;7.27;;;5.60;99.90;;;;;;5062245;28;20187;-80
2022/03/22 06:02:31;;;;;;;11.63;8.33;;;5.60;99.90;;;;;;5060897;28;20180;-79
2022/03/22 06:04:56;;;;;;;12.00;8.20;;;5.60;99.90;;;;;;5063151;28;20190;-79
2022/03/22 06:07:22;;;;;;;9.97;7.07;;;5.60;99.90;;;;;;5061547;28;20202;-79
2022/03/22 06:09:48;;;;;;;15.90;8.30;;;5.60;99.90;;;;;;5063371;28;20540;-78
2022/03/22 06:12:14;;;;;;;11.17;7.70;;;5.60;99.90;;;;;;5064095;28;20163;-78
2022/03/22 06:14:41;;;;;;;10.57;7.70;;;5.60;99.90;;;;;;5062607;28;20167;-79
2022/03/22 06:17:06;;;;;;;10.23;7.90;;;5.60;99.90;;;;;;5063610;28;20195;-79
2022/03/22 06:19:32;;;;;;;15.23;8.03;;;5.70;99.90;;;;;;5061933;28;20668;-78
2022/03/22 06:21:57;;;;;;;11.23;7.47;;;5.70;99.90;;;;;;5060394;28;20574;-78
2022/03/22 06:24:23;;;;;;;14.60;8.47;;;5.70;99.90;;;;;;5062103;28;20277;-81
2022/03/22 06:26:48;;;;;;;9.63;7.30;;;5.70;99.90;;;;;;5060664;28;20191;-79
2022/03/22 06:29:14;;;;;;;12.63;7.93;;;5.80;99.90;;;;;;5060386;28;20183;-79
2022/03/22 06:31:40;;;;;;;15.00;8.10;;;5.80;99.90;;;;;;5059219;28;20210;-79
2022/03/22 06:34:05;;;;;;;10.80;7.90;;;5.80;99.90;;;;;;5059902;28;20229;-79
2022/03/22 06:36:31;;;;;;;8.43;7.37;;;5.90;99.90;;;;;;5059393;28;20267;-79
2022/03/22 06:38:56;;;;;;;9.83;7.37;;;6.00;99.90;;;;;;5058532;28;20290;-79
2022/03/22 06:41:22;;;;;;;11.40;7.37;;;6.00;99.90;;;;;;5059728;28;20229;-79
2022/03/22 06:43:47;;;;;;;9.77;7.10;;;6.10;99.90;;;;;;5055430;28;20176;-80
2022/03/22 06:46:13;;;;;;;9.53;7.77;;;6.20;99.90;;;;;;5055295;28;20188;-79
2022/03/22 06:48:38;;;;;;;11.87;7.80;;;6.20;99.90;;;;;;5053980;28;20268;-78
2022/03/22 06:51:04;;;;;;;9.83;7.03;;;6.30;99.90;;;;;;5055103;28;20214;-78
2022/03/22 06:53:30;;;;;;;9.40;7.47;;;6.40;99.90;;;;;;5052837;28;20183;-77
2022/03/22 06:55:55;;;;;;;11.23;7.23;;;6.50;99.90;;;;;;5053961;28;20279;-77
2022/03/22 06:58:24;;;;;;;9.97;7.70;;;6.60;99.90;;;;;;5053777;28;20238;-77
2022/03/22 07:00:49;;;;;;;10.13;7.20;;;6.70;99.90;;;;;;5053502;28;20180;-77
2022/03/22 07:03:15;;;;;;;10.67;7.50;;;6.80;99.90;;;;;;5054076;28;20172;-77
2022/03/22 07:05:42;;;;;;;10.03;7.30;;;6.90;99.90;;;;;;5053772;28;20232;-77
2022/03/22 07:08:08;;;;;;;12.70;7.33;;;7.00;99.90;;;;;;5052235;28;20196;-77
2022/03/22 07:10:34;;;;;;;16.60;8.17;;;7.10;99.90;;;;;;5052064;28;20199;-77
2022/03/22 07:13:05;;;;;;;19.40;8.10;;;7.20;99.90;;;;;;5053529;28;20172;-77
2022/03/22 07:15:34;;;;;;;12.93;6.90;;;7.40;99.90;;;;;;5035812;28;20205;-77
2022/03/22 07:18:02;;;;;;;15.37;7.97;;;7.50;99.90;;;;;;5053507;28;20207;-77
2022/03/22 07:20:28;;;;;;;11.43;7.27;;;7.60;99.90;;;;;;5053018;28;20320;-77
2022/03/22 07:22:54;;;;;;;12.97;7.20;;;7.80;99.90;;;;;;5052356;28;20262;-77
2022/03/22 07:25:20;;;;;;;11.97;7.07;;;8.00;99.90;;;;;;5053610;28;20668;-77
2022/03/22 07:27:46;;;;;;;11.70;8.13;;;8.10;99.90;;;;;;5053363;28;20199;-77
2022/03/22 07:30:14;;;;;;;15.10;7.93;;;8.30;99.90;;;;;;5051737;28;20191;-77
2022/03/22 07:32:40;;;;;;;12.50;8.37;;;8.40;99.90;;;;;;5053287;28;20262;-77
2022/03/22 07:35:07;;;;;;;10.93;8.00;;;8.50;99.90;;;;;;5053347;28;20210;-77
2022/03/22 07:37:34;;;;;;;10.37;7.63;;;8.60;99.90;;;;;;5053226;28;20222;-78
2022/03/22 07:40:00;;;;;;;11.33;7.57;;;8.70;99.90;;;;;;5053381;28;20298;-78
2022/03/22 07:42:27;;;;;;;15.80;7.63;;;8.90;99.90;;;;;;5059519;28;20183;-78
2022/03/22 07:44:55;;;;;;;13.07;7.43;;;9.00;98.80;;;;;;5057366;28;20187;-78
2022/03/22 07:47:20;;;;;;;9.50;7.37;;;9.10;95.70;;;;;;5060428;28;20187;-79
2022/03/22 07:55:14;;;;;;;10.17;7.47;;;9.50;89.30;;;;;;5059574;28;20229;-78
2022/03/22 07:57:40;;;;;;;14.10;7.73;;;9.60;86.70;;;;;;5059280;28;20195;-78
2022/03/22 08:00:06;;;;;;;13.27;7.73;;;9.70;80.00;;;;;;5058129;28;20176;-78
2022/03/22 08:02:35;;;;;;;9.80;7.67;;;9.90;78.50;;;;;;5054541;28;20171;-76
2022/03/22 08:05:00;;;;;;;9.47;7.23;;;10.00;67.20;;;;;;5052971;28;20195;-77
2022/03/22 08:07:27;;;;;;;10.73;7.73;;;10.00;66.90;;;;;;5052920;28;20211;-76
2022/03/22 08:09:52;;;;;;;10.43;7.13;;;10.10;62.10;;;;;;5052536;28;20619;-76
2022/03/22 08:12:18;;;;;;;11.07;7.57;;;10.20;64.50;;;;;;5052946;28;20659;-76
2022/03/22 08:14:43;;;;;;;13.73;7.53;;;10.30;60.40;;;;;;5053095;28;20199;-77
2022/03/22 08:17:09;;;;;;;9.53;7.37;;;10.40;57.20;;;;;;5052988;28;20282;-77
2022/03/22 08:19:34;;;;;;;9.33;7.10;;;10.50;56.90;;;;;;5052586;28;20199;-78
2022/03/22 08:22:00;;;;;;;13.03;7.50;;;10.60;56.60;;;;;;5051500;28;20336;-77
2022/03/22 08:24:26;;;;;;;10.20;7.70;;;10.70;56.10;;;;;;5052773;28;20171;-77
2022/03/22 08:26:51;;;;;;;10.87;7.70;;;10.80;45.00;;;;;;5054598;28;20276;-77
2022/03/22 08:29:17;;;;;;;10.40;8.20;;;10.90;49.00;;;;;;5056797;28;20541;-76
2022/03/22 08:31:43;;;;;;;11.77;7.93;;;10.90;48.90;;;;;;5055103;28;20180;-78
2022/03/22 08:34:08;;;;;;;11.70;7.40;;;11.00;42.10;;;;;;5057143;28;20183;-77
2022/03/22 08:36:34;;;;;;;8.80;7.23;;;11.10;43.80;;;;;;5056571;28;20668;-77
2022/03/22 08:39:00;;;;;;;11.60;7.07;;;11.20;45.20;;;;;;5056021;28;20286;-77
2022/03/22 08:41:26;;;;;;;9.23;7.03;;;11.30;40.40;;;;;;5056547;28;20160;-76
2022/03/22 08:43:54;;;;;;;8.77;7.23;;;11.40;32.70;;;;;;5053778;28;20193;-77
2022/03/22 08:46:24;;;;;;;9.50;6.70;;;11.50;28.90;;;;;;5056051;28;20587;-76
2022/03/22 08:48:54;;;;;;;9.03;6.73;;;11.60;29.90;;;;;;5056188;28;20742;-76
2022/03/22 08:51:21;;;;;;;12.33;7.63;;;11.70;94.10;;;;;;5054954;28;20679;-77
2022/03/22 08:53:46;;;;;;;10.57;7.50;;;11.80;93.90;;;;;;5056158;28;20164;-76
2022/03/22 08:56:12;;;;;;;11.10;7.70;;;11.90;90.20;;;;;;5054073;28;20611;-76
2022/03/22 08:58:38;;;;;;;10.80;6.77;;;12.00;82.60;;;;;;5038200;28;20206;-76
2022/03/22 09:01:04;;;;;;;9.70;6.93;;;12.10;76.00;;;;;;5055258;28;20179;-78
2022/03/22 09:03:32;;;;;;;9.27;7.33;;;12.10;62.00;;;;;;5055953;28;20172;-76
2022/03/22 09:06:11;;;;;;;8.53;6.90;;;12.20;58.80;;;;;;5054326;28;20171;-76
2022/03/22 09:08:39;;;;;;;14.63;7.10;;;12.30;56.00;;;;;;5055712;28;20195;-76
2022/03/22 09:11:05;;;;;;;12.80;7.40;;;12.40;46.70;;;;;;5055734;28;20188;-77
2022/03/22 09:13:31;;;;;;;8.83;7.30;;;12.50;57.30;;;;;;5055900;28;20251;-77
2022/03/22 09:15:57;;;;;;;10.97;7.43;;;12.60;51.70;;;;;;5054897;28;20274;-76
2022/03/22 09:18:24;;;;;;;8.90;7.43;;;12.50;49.60;;;;;;5055509;28;20203;-76
2022/03/22 09:20:50;;;;;;;15.03;8.03;;;12.60;52.70;;;;;;5038089;28;20522;-75
2022/03/22 09:23:15;;;;;;;10.03;6.97;;;12.80;23.70;;;;;;5052579;28;20190;-78
2022/03/22 09:25:42;;;;;;;10.87;7.90;;;12.90;34.10;;;;;;5056443;28;20258;-78
2022/03/22 09:28:08;;;;;;;9.40;7.60;;;13.00;34.70;;;;;;5054687;28;20187;-77
2022/03/22 09:30:35;;;;;;;12.47;7.53;;;13.10;23.20;;;;;;5054559;28;20279;-78
2022/03/22 09:33:04;;;;;;;9.93;7.43;;;13.10;25.50;;;;;;5087672;23;20226;-79
2022/03/22 09:35:30;;;;;;;12.93;7.73;;;13.20;28.20;;;;;;5081813;28;20644;-78
2022/03/22 09:37:56;;;;;;;12.90;7.67;;;13.20;30.50;;;;;;5079528;28;20277;-78
2022/03/22 09:40:23;;;;;;;12.03;8.27;;;13.30;35.60;;;;;;5080296;28;20213;-78
2022/03/22 09:42:49;;;;;;;9.50;7.37;;;13.40;20.20;;;;;;5078723;28;20726;-78
2022/03/22 09:45:17;;;;;;;11.20;6.90;;;13.60;4.70;;;;;;5061233;28;20234;-78
2022/03/22 09:47:45;;;;;;;11.00;7.10;;;13.70;3.60;;;;;;5077990;28;20308;-79
2022/03/22 09:50:12;;;;;;;10.43;7.37;;;13.80;12.00;;;;;;5059487;28;20650;-79
2022/03/22 09:52:39;;;;;;;8.40;6.47;;;13.90;17.30;;;;;;5077543;28;20692;-79
2022/03/22 09:55:07;;;;;;;12.50;6.97;;;13.90;18.00;;;;;;5059831;28;20171;-79
2022/03/22 09:57:33;;;;;;;11.47;6.77;;;14.00;14.20;;;;;;5060228;28;20175;-79
2022/03/22 09:59:59;;;;;;;10.20;7.00;;;14.10;14.70;;;;;;5079261;28;20664;-79
2022/03/22 10:02:29;;;;;;;11.17;7.47;;;14.20;11.90;;;;;;5078495;28;20190;-79
2022/03/22 10:04:54;;;;;;;13.00;8.47;;;14.20;13.40;;;;;;5078497;28;20167;-80
2022/03/22 10:07:22;;;;;;;10.80;7.37;;;14.30;7.30;;;;;;5060713;28;20265;-80
2022/03/22 10:09:55;;;;;;;11.37;7.63;;;14.30;14.70;;;;;;5078422;28;20313;-79
2022/03/22 10:12:35;;;;;;;9.87;7.07;;;14.40;18.30;;;;;;5060420;28;20175;-79
2022/03/22 10:15:10;;;;;;;9.87;7.30;;;14.50;7.00;;;;;;5078813;28;20254;-80
2022/03/22 10:17:36;;;;;;;10.80;7.07;;;14.60;1.00;;;;;;5060632;28;20552;-80
2022/03/22 10:20:05;;;;;;;9.23;7.10;;;14.70;11.00;;;;;;5060351;28;20179;-81
2022/03/22 10:22:31;;;;;;;10.37;7.07;;;14.90;1.00;;;;;;5077259;28;20656;-80
2022/03/22 10:24:58;;;;;;;9.60;7.17;;;14.90;9.10;;;;;;5078523;28;20186;-79
2022/03/22 10:27:30;;;;;;;13.77;6.53;;;15.00;1.00;;;;;;5078887;28;20175;-79
2022/03/22 10:29:57;;;;;;;12.00;7.53;;;15.00;1.00;;;;;;5079700;28;20262;-80
2022/03/22 10:32:32;;;;;;;8.50;6.70;;;15.10;1.00;;;;;;5060464;28;20190;-79
2022/03/22 10:35:17;;;;;;;11.53;7.00;;;15.20;1.00;;;;;;5060882;28;20667;-80
2022/03/22 10:37:45;;;;;;;9.20;7.20;;;15.30;8.40;;;;;;5078661;28;20182;-79
2022/03/22 10:40:27;;;;;;;10.17;7.13;;;15.30;9.70;;;;;;5060030;28;20258;-79
2022/03/22 10:42:58;;;;;;;10.50;7.23;;;15.30;1.00;;;;;;5078500;28;20606;-79
2022/03/22 10:45:27;;;;;;;12.43;7.97;;;15.40;6.60;;;;;;5060942;28;20173;-79
2022/03/22 10:47:53;;;;;;;9.73;7.17;;;15.50;1.00;;;;;;5060461;28;20186;-79
2022/03/22 10:50:19;;;;;;;9.20;6.67;;;15.50;4.30;;;;;;5059709;28;20183;-80
2022/03/22 10:53:03;;;;;;;9.57;7.43;;;15.60;1.00;;;;;;5078301;28;20531;-80
2022/03/22 10:55:28;;;;;;;11.20;7.10;;;15.60;1.30;;;;;;5078759;28;20254;-79
2022/03/22 10:57:57;;;;;;;11.50;7.20;;;15.70;1.00;;;;;;5059578;28;20218;-80
2022/03/22 11:00:25;;;;;;;12.97;7.63;;;15.80;1.00;;;;;;5077461;28;20179;-80
2022/03/22 11:02:53;;;;;;;17.93;7.20;;;15.90;1.00;;;;;;5077467;28;20250;-80
2022/03/22 11:05:20;;;;;;;12.37;7.70;;;16.10;1.00;;;;;;5059547;28;20261;-80
2022/03/22 11:07:53;;;;;;;12.37;7.03;;;16.10;5.10;;;;;;5059911;28;20186;-80
2022/03/22 11:10:25;;;;;;;11.40;7.20;;;16.10;7.80;;;;;;5059737;28;20179;-80
2022/03/22 11:12:51;;;;;;;11.17;7.83;;;16.20;1.00;;;;;;5078308;28;20191;-79
2022/03/22 11:15:17;;;;;;;10.17;7.20;;;16.30;10.80;;;;;;5077270;28;20528;-79
2022/03/22 11:17:47;;;;;;;10.37;7.47;;;16.40;1.00;;;;;;5077191;28;20185;-79
2022/03/22 11:20:13;;;;;;;10.00;7.33;;;16.40;13.80;;;;;;5077151;28;20191;-79
2022/03/22 11:22:45;;;;;;;9.53;7.07;;;16.50;4.70;;;;;;5076604;28;20189;-79
2022/03/22 11:25:13;;;;;;;12.87;7.40;;;16.50;63.70;;;;;;5078000;28;20192;-78
2022/03/22 11:27:39;;;;;;;17.23;8.13;;;16.60;17.90;;;;;;5079503;28;20172;-82
2022/03/22 11:30:08;;;;;;;11.20;7.37;;;16.60;17.30;;;;;;5059465;28;20266;-81
2022/03/22 11:35:25;;;;;;;11.70;7.60;;;16.60;13.40;;;;;;5078480;28;20189;-81
2022/03/22 11:38:01;;;;;;;12.10;7.17;;;16.70;5.90;;;;;;5077629;28;20221;-81
2022/03/22 11:43:13;;;;;;;11.97;7.33;;;16.90;22.20;;;;;;5077401;28;20561;-81
2022/03/22 11:45:47;;;;;;;10.73;7.33;;;17.00;23.00;;;;;;5059267;28;20186;-81
2022/03/22 11:48:12;;;;;;;13.70;6.97;;;17.10;17.60;;;;;;5059664;28;20590;-81
2022/03/22 11:50:41;;;;;;;11.13;7.30;;;17.20;46.50;;;;;;5076649;28;20236;-81
2022/03/22 11:53:19;;;;;;;13.50;7.13;;;17.30;33.70;;;;;;5077098;28;20191;-80
2022/03/22 11:55:50;;;;;;;13.90;7.80;;;17.30;82.50;;;;;;5078006;28;20561;-81
2022/03/22 11:58:15;;;;;;;13.97;8.30;;;17.40;17.70;;;;;;5059801;28;20690;-80
2022/03/22 12:01:01;;;;;;;9.93;6.33;;;17.50;26.90;;;;;;5079072;28;20202;-81
2022/03/22 12:03:32;;;;;;;10.10;6.30;;;17.50;18.50;;;;;;5082853;28;20182;-81
2022/03/22 12:06:11;;;;;;;10.50;5.30;;;17.60;7.20;;;;;;5083382;28;20171;-81
2022/03/22 12:08:37;;;;;;;11.93;6.60;;;17.60;1.00;;;;;;5081362;28;20331;-81
2022/03/22 12:11:04;;;;;;;13.63;6.00;;;17.60;1.00;;;;;;5064484;28;20182;-81
2022/03/22 12:13:30;;;;;;;9.77;5.60;;;17.60;1.00;;;;;;5064918;28;20549;-81
2022/03/22 12:16:01;;;;;;;10.30;6.57;;;17.60;1.00;;;;;;5066882;28;20261;-81
2022/03/22 12:18:30;;;;;;;9.70;5.80;;;17.70;1.00;;;;;;5067139;28;20214;-81
2022/03/22 12:20:56;;;;;;;11.03;6.30;;;17.80;1.00;;;;;;5068275;28;20179;-81
2022/03/22 12:23:23;;;;;;;10.20;5.57;;;17.80;1.00;;;;;;5081000;28;20201;-82
2022/03/22 12:25:49;;;;;;;12.80;6.50;;;17.80;1.00;;;;;;5062791;28;20559;-81
2022/03/22 12:28:16;;;;;;;15.30;6.47;;;17.80;1.00;;;;;;5062581;28;20224;-81
2022/03/22 12:30:43;;;;;;;8.80;5.70;;;17.80;1.00;;;;;;5062798;28;20207;-81
2022/03/22 12:33:13;;;;;;;12.33;6.20;;;17.80;2.10;;;;;;5080968;28;20747;-81
2022/03/22 12:35:40;;;;;;;9.93;6.27;;;17.90;23.10;;;;;;5061111;28;20181;-81
2022/03/22 12:38:06;;;;;;;12.77;5.97;;;17.90;5.00;;;;;;5061069;28;20687;-82
2022/03/22 12:40:33;;;;;;;7.60;5.10;;;17.90;1.00;;;;;;5079074;28;20170;-81
2022/03/22 12:43:00;;;;;;;10.73;5.97;;;17.80;1.00;;;;;;5078755;28;20187;-81
2022/03/22 12:45:27;;;;;;;10.17;6.33;;;17.90;4.70;;;;;;5079001;28;20166;-81
2022/03/22 12:47:53;;;;;;;11.87;6.83;;;17.90;18.80;;;;;;5079186;28;20203;-81
2022/03/22 12:50:20;;;;;;;10.10;6.30;;;17.90;10.20;;;;;;5060623;28;20197;-81
2022/03/22 12:52:47;;;;;;;12.50;6.47;;;17.90;7.70;;;;;;5061063;28;20232;-81
2022/03/22 12:55:14;;;;;;;9.23;5.83;;;17.80;1.00;;;;;;5060526;28;20619;-81
2022/03/22 12:57:44;;;;;;;17.73;6.50;;;17.90;4.80;;;;;;5078930;28;20166;-81
2022/03/22 13:00:10;;;;;;;13.93;7.10;;;17.90;18.80;;;;;;5060798;28;20300;-80
2022/03/22 13:02:39;;;;;;;11.97;6.30;;;18.00;16.10;;;;;;5078767;28;20220;-80
2022/03/22 13:05:06;;;;;;;13.73;6.77;;;18.10;1.00;;;;;;5078676;28;20288;-81
2022/03/22 13:07:33;;;;;;;13.87;6.57;;;18.20;1.00;;;;;;5061145;28;20167;-79
2022/03/22 13:12:44;;;;;;;10.53;5.70;;;18.20;30.10;;;;;;5079191;28;20252;-80
2022/03/22 13:15:13;;;;;;;14.13;6.13;;;18.30;1.00;;;;;;5078772;28;20574;-81
2022/03/22 13:17:50;;;;;;;11.47;5.93;;;18.20;14.90;;;;;;5078247;28;20179;-80
2022/03/22 13:20:17;;;;;;;15.90;6.50;;;18.30;2.20;;;;;;5078649;28;20257;-81
2022/03/22 13:23:06;;;;;;;16.30;7.23;;;18.30;1.00;;;;;;5078871;28;20179;-81
2022/03/22 13:25:35;;;;;;;10.97;6.10;;;18.40;3.50;;;;;;5079263;28;20175;-81